createdAt,value
2018-09-17T00:00:36.407Z,35.80
2018-09-17T00:01:36.388Z,34.00
2018-09-17T00:02:36.369Z,36.30
2018-09-17T00:03:36.348Z,39.50
2018-09-17T00:04:36.331Z,38.50
2018-09-17T00:05:36.309Z,43.10
2018-09-17T00:06:36.294Z,37.20
2018-09-17T00:07:36.270Z,41.30
2018-09-17T00:08:36.250Z,36.90
2018-09-17T00:09:36.229Z,39.10
2018-09-17T00:10:36.211Z,37.50
2018-09-17T00:11:36.191Z,38.50
2018-09-17T00:12:36.172Z,35.80
2018-09-17T00:13:36.149Z,35.80
2018-09-17T00:14:36.882Z,36.20
2018-09-17T00:15:36.113Z,38.60
2018-09-17T00:16:36.091Z,36.60
2018-09-17T00:17:36.070Z,38.10
2018-09-17T00:18:36.054Z,37.10
2018-09-17T00:19:36.032Z,35.10
2018-09-17T00:20:36.011Z,35.30
2018-09-17T00:21:35.992Z,35.30
2018-09-17T00:22:35.970Z,35.00
2018-09-17T00:23:35.952Z,31.80
2018-09-17T00:24:35.932Z,35.80
2018-09-17T00:25:35.911Z,34.70
2018-09-17T00:26:35.892Z,35.50
2018-09-17T00:27:35.872Z,36.20
2018-09-17T00:28:35.853Z,35.90
2018-09-17T00:29:35.833Z,39.80
2018-09-17T00:30:36.565Z,40.00
2018-09-17T00:31:35.791Z,41.00
2018-09-17T00:32:35.772Z,40.20
2018-09-17T00:33:35.751Z,41.70
2018-09-17T00:34:35.732Z,37.70
2018-09-17T00:35:35.712Z,39.30
2018-09-17T00:36:35.691Z,37.70
2018-09-17T00:37:35.671Z,34.80
2018-09-17T00:38:35.651Z,35.40
2018-09-17T00:39:35.631Z,38.20
2018-09-17T00:40:35.613Z,35.10
2018-09-17T00:41:35.792Z,30.30
2018-09-17T00:42:35.571Z,32.30
2018-09-17T00:43:35.551Z,29.00
2018-09-17T00:44:35.532Z,29.80
2018-09-17T00:45:35.511Z,32.50
2018-09-17T00:46:35.490Z,38.50
2018-09-17T00:47:35.472Z,35.70
2018-09-17T00:48:35.452Z,35.90
2018-09-17T00:49:35.430Z,39.90
2018-09-17T00:50:35.413Z,37.90
2018-09-17T00:51:35.392Z,33.60
2018-09-17T00:52:35.370Z,37.10
2018-09-17T00:53:35.350Z,37.00
2018-09-17T00:54:35.329Z,31.70
2018-09-17T00:55:35.311Z,32.80
2018-09-17T00:56:35.290Z,36.70
2018-09-17T00:57:35.269Z,38.70
2018-09-17T00:58:35.251Z,34.70
2018-09-17T00:59:35.429Z,40.40
2018-09-17T01:00:35.209Z,38.30
2018-09-17T01:01:35.189Z,42.20
2018-09-17T01:02:35.169Z,45.00
2018-09-17T01:03:35.148Z,40.10
2018-09-17T01:04:35.132Z,39.50
2018-09-17T01:05:35.111Z,39.40
2018-09-17T01:06:35.092Z,41.10
2018-09-17T01:07:35.069Z,39.40
2018-09-17T01:08:35.051Z,36.50
2018-09-17T01:09:35.028Z,34.70
2018-09-17T01:10:35.047Z,35.30
2018-09-17T01:11:34.988Z,35.40
2018-09-17T01:12:34.969Z,39.90
2018-09-17T01:13:34.948Z,42.90
2018-09-17T01:14:34.928Z,40.10
2018-09-17T01:15:34.908Z,42.10
2018-09-17T01:16:34.887Z,44.70
2018-09-17T01:17:34.867Z,39.70
2018-09-17T01:18:34.847Z,36.90
2018-09-17T01:19:34.827Z,37.60
2018-09-17T01:20:34.810Z,36.60
2018-09-17T01:21:34.789Z,39.10
2018-09-17T01:22:34.766Z,40.80
2018-09-17T01:23:34.746Z,41.40
2018-09-17T01:24:34.728Z,39.40
2018-09-17T01:25:34.706Z,45.30
2018-09-17T01:26:34.686Z,46.30
2018-09-17T01:27:34.665Z,47.00
2018-09-17T01:28:36.898Z,42.80
2018-09-17T01:29:34.625Z,41.60
2018-09-17T01:30:34.672Z,35.70
2018-09-17T01:31:34.591Z,35.40
2018-09-17T01:32:34.567Z,37.50
2018-09-17T01:33:34.552Z,34.90
2018-09-17T01:34:34.539Z,34.10
2018-09-17T01:35:34.505Z,32.20
2018-09-17T01:36:34.488Z,33.50
2018-09-17T01:37:34.464Z,32.90
2018-09-17T01:38:34.444Z,34.30
2018-09-17T01:39:34.425Z,35.70
2018-09-17T01:40:34.405Z,36.90
2018-09-17T01:41:34.393Z,38.00
2018-09-17T01:42:34.364Z,40.20
2018-09-17T01:43:34.343Z,39.50
2018-09-17T01:44:34.323Z,40.70
2018-09-17T01:45:34.302Z,36.40
2018-09-17T01:46:34.282Z,40.40
2018-09-17T01:47:34.262Z,40.30
2018-09-17T01:48:34.242Z,41.30
2018-09-17T01:49:34.225Z,42.30
2018-09-17T01:50:34.202Z,37.70
2018-09-17T01:51:34.182Z,40.70
2018-09-17T01:52:34.161Z,37.60
2018-09-17T01:53:34.140Z,37.50
2018-09-17T01:54:34.125Z,41.00
2018-09-17T01:55:34.101Z,39.60
2018-09-17T01:56:34.084Z,38.00
2018-09-17T01:57:34.059Z,40.80
2018-09-17T01:58:34.038Z,38.00
2018-09-17T01:59:34.018Z,40.00
2018-09-17T02:00:33.998Z,39.30
2018-09-17T02:01:33.979Z,36.30
2018-09-17T02:02:33.958Z,30.80
2018-09-17T02:03:33.940Z,30.10
2018-09-17T02:04:33.917Z,31.70
2018-09-17T02:05:33.898Z,30.50
2018-09-17T02:06:33.876Z,30.00
2018-09-17T02:07:33.857Z,28.90
2018-09-17T02:08:33.889Z,29.10
2018-09-17T02:09:33.882Z,30.40
2018-09-17T02:10:33.795Z,32.20
2018-09-17T02:11:33.802Z,29.80
2018-09-17T02:12:33.755Z,32.90
2018-09-17T02:13:33.734Z,37.00
2018-09-17T02:14:33.716Z,36.10
2018-09-17T02:15:33.693Z,33.00
2018-09-17T02:16:33.673Z,37.10
2018-09-17T02:17:33.653Z,36.20
2018-09-17T02:18:33.634Z,33.10
2018-09-17T02:19:33.613Z,32.20
2018-09-17T02:20:33.592Z,34.50
2018-09-17T02:21:33.570Z,37.30
2018-09-17T02:22:33.551Z,32.20
2018-09-17T02:23:33.529Z,37.10
2018-09-17T02:24:33.511Z,32.30
2018-09-17T02:25:33.489Z,33.00
2018-09-17T02:26:33.470Z,32.80
2018-09-17T02:27:33.449Z,32.20
2018-09-17T02:28:33.428Z,32.60
2018-09-17T02:29:33.407Z,35.20
2018-09-17T02:30:33.388Z,36.50
2018-09-17T02:31:33.368Z,35.20
2018-09-17T02:32:33.349Z,34.80
2018-09-17T02:33:33.330Z,32.70
2018-09-17T02:34:33.305Z,32.60
2018-09-17T02:35:33.285Z,34.70
2018-09-17T02:36:33.265Z,32.80
2018-09-17T02:37:33.246Z,31.80
2018-09-17T02:38:33.224Z,27.80
2018-09-17T02:39:33.205Z,28.00
2018-09-17T02:40:33.184Z,28.60
2018-09-17T02:41:33.162Z,28.70
2018-09-17T02:42:33.142Z,29.30
2018-09-17T02:43:33.127Z,32.10
2018-09-17T02:44:33.102Z,33.70
2018-09-17T02:45:33.082Z,32.20
2018-09-17T02:46:33.060Z,33.00
2018-09-17T02:47:33.041Z,33.70
2018-09-17T02:48:33.020Z,33.10
2018-09-17T02:49:32.999Z,34.00
2018-09-17T02:50:32.978Z,36.60
2018-09-17T02:51:32.958Z,36.70
2018-09-17T02:52:32.938Z,36.60
2018-09-17T02:53:33.033Z,38.70
2018-09-17T02:54:32.896Z,36.90
2018-09-17T02:55:32.876Z,38.70
2018-09-17T02:56:32.857Z,36.80
2018-09-17T02:57:32.834Z,41.20
2018-09-17T02:58:32.817Z,39.40
2018-09-17T02:59:32.795Z,45.40
2018-09-17T03:00:32.774Z,46.00
2018-09-17T03:01:32.753Z,41.50
2018-09-17T03:02:32.733Z,48.50
2018-09-17T03:03:32.714Z,39.10
2018-09-17T03:04:32.692Z,34.20
2018-09-17T03:05:32.672Z,36.90
2018-09-17T03:06:32.651Z,40.60
2018-09-17T03:07:32.630Z,42.50
2018-09-17T03:08:32.615Z,39.40
2018-09-17T03:09:32.588Z,42.00
2018-09-17T03:10:32.568Z,39.20
2018-09-17T03:11:32.549Z,38.70
2018-09-17T03:12:32.527Z,39.70
2018-09-17T03:13:32.514Z,30.50
2018-09-17T03:14:32.485Z,31.40
2018-09-17T03:15:32.465Z,32.30
2018-09-17T03:16:32.444Z,37.30
2018-09-17T03:17:32.423Z,38.30
2018-09-17T03:18:32.404Z,31.70
2018-09-17T03:19:32.383Z,32.00
2018-09-17T03:20:32.363Z,36.20
2018-09-17T03:21:32.342Z,38.30
2018-09-17T03:22:32.320Z,32.70
2018-09-17T03:23:32.301Z,32.50
2018-09-17T03:24:32.373Z,31.60
2018-09-17T03:25:32.258Z,33.80
2018-09-17T03:26:32.237Z,38.10
2018-09-17T03:27:32.217Z,38.50
2018-09-17T03:28:32.196Z,34.60
2018-09-17T03:29:32.174Z,37.90
2018-09-17T03:30:32.165Z,36.10
2018-09-17T03:31:32.134Z,35.40
2018-09-17T03:32:32.113Z,35.50
2018-09-17T03:33:32.091Z,32.90
2018-09-17T03:34:32.071Z,33.00
2018-09-17T03:35:32.051Z,36.80
2018-09-17T03:36:32.031Z,34.80
2018-09-17T03:37:32.009Z,35.70
2018-09-17T03:38:31.988Z,31.30
2018-09-17T03:39:31.970Z,31.30
2018-09-17T03:40:32.699Z,30.40
2018-09-17T03:41:31.926Z,32.90
2018-09-17T03:42:31.905Z,29.70
2018-09-17T03:43:31.889Z,34.90
2018-09-17T03:44:31.867Z,36.70
2018-09-17T03:45:31.843Z,37.70
2018-09-17T03:46:31.848Z,40.50
2018-09-17T03:47:31.802Z,37.10
2018-09-17T03:48:31.782Z,38.60
2018-09-17T03:49:31.760Z,40.40
2018-09-17T03:50:31.739Z,43.20
2018-09-17T03:51:31.718Z,39.80
2018-09-17T03:52:31.700Z,42.60
2018-09-17T03:53:31.676Z,40.00
2018-09-17T03:54:31.658Z,42.30
2018-09-17T03:55:31.635Z,43.90
2018-09-17T03:56:31.616Z,44.60
2018-09-17T03:57:31.594Z,47.20
2018-09-17T03:58:31.574Z,50.50
2018-09-17T03:59:31.554Z,50.90
2018-09-17T04:00:31.533Z,50.10
2018-09-17T04:01:31.510Z,53.50
2018-09-17T04:02:31.490Z,56.50
2018-09-17T04:03:31.470Z,53.70
2018-09-17T04:04:31.450Z,57.10
2018-09-17T04:05:31.428Z,58.70
2018-09-17T04:06:31.406Z,58.60
2018-09-17T04:07:31.386Z,63.40
2018-09-17T04:08:31.366Z,60.60
2018-09-17T04:09:31.346Z,67.30
2018-09-17T04:10:31.323Z,66.00
2018-09-17T04:11:31.303Z,63.00
2018-09-17T04:12:31.282Z,59.00
2018-09-17T04:13:31.261Z,62.00
2018-09-17T04:14:31.240Z,64.20
2018-09-17T04:15:31.220Z,61.90
2018-09-17T04:16:31.200Z,59.70
2018-09-17T04:17:31.177Z,58.20
2018-09-17T04:18:31.161Z,61.50
2018-09-17T04:19:31.137Z,64.70
2018-09-17T04:20:31.127Z,62.60
2018-09-17T04:21:31.096Z,71.20
2018-09-17T04:22:31.076Z,68.80
2018-09-17T04:23:31.054Z,67.10
2018-09-17T04:24:31.033Z,75.80
2018-09-17T04:25:31.012Z,79.30
2018-09-17T04:26:30.991Z,112.70
2018-09-17T04:27:30.970Z,250.80
2018-09-17T04:28:30.952Z,212.70
2018-09-17T04:29:30.929Z,271.50
2018-09-17T04:30:30.908Z,379.90
2018-09-17T04:31:30.902Z,357.50
2018-09-17T04:32:30.867Z,352.40
2018-09-17T04:33:30.845Z,305.20
2018-09-17T04:34:30.825Z,296.50
2018-09-17T04:35:30.805Z,253.70
2018-09-17T04:36:30.787Z,230.80
2018-09-17T04:37:30.765Z,223.80
2018-09-17T04:38:30.742Z,235.90
2018-09-17T04:39:30.723Z,238.20
2018-09-17T04:40:30.701Z,169.80
2018-09-17T04:41:30.680Z,145.30
2018-09-17T04:42:30.658Z,139.40
2018-09-17T04:43:30.638Z,132.70
2018-09-17T04:44:30.617Z,124.00
2018-09-17T04:45:30.597Z,120.20
2018-09-17T04:46:30.575Z,115.80
2018-09-17T04:47:30.555Z,109.80
2018-09-17T04:48:30.538Z,109.70
2018-09-17T04:49:30.513Z,108.60
2018-09-17T04:50:30.492Z,97.10
2018-09-17T04:51:30.472Z,86.60
2018-09-17T04:52:30.451Z,83.30
2018-09-17T04:53:30.429Z,78.80
2018-09-17T04:54:30.410Z,76.60
2018-09-17T04:55:30.388Z,70.90
2018-09-17T04:56:30.372Z,63.70
2018-09-17T04:57:30.346Z,64.40
2018-09-17T04:58:30.327Z,63.30
2018-09-17T04:59:30.305Z,62.90
2018-09-17T05:00:30.284Z,62.10
2018-09-17T05:01:30.264Z,63.40
2018-09-17T05:02:30.243Z,65.30
2018-09-17T05:03:30.222Z,60.00
2018-09-17T05:04:30.204Z,60.40
2018-09-17T05:05:30.179Z,58.80
2018-09-17T05:06:30.161Z,54.70
2018-09-17T05:07:30.139Z,53.90
2018-09-17T05:08:30.118Z,54.90
2018-09-17T05:09:30.097Z,55.00
2018-09-17T05:10:30.076Z,53.00
2018-09-17T05:11:30.055Z,49.50
2018-09-17T05:12:30.036Z,47.40
2018-09-17T05:13:30.124Z,46.80
2018-09-17T05:14:29.993Z,48.50
2018-09-17T05:15:29.973Z,48.40
2018-09-17T05:16:29.953Z,47.40
2018-09-17T05:17:29.930Z,49.30
2018-09-17T05:18:29.912Z,49.40
2018-09-17T05:19:29.888Z,53.10
2018-09-17T05:20:29.871Z,50.40
2018-09-17T05:21:29.848Z,50.80
2018-09-17T05:22:29.828Z,53.90
2018-09-17T05:23:29.806Z,49.80
2018-09-17T05:24:29.785Z,51.20
2018-09-17T05:25:29.763Z,53.40
2018-09-17T05:26:29.743Z,53.40
2018-09-17T05:27:29.723Z,51.50
2018-09-17T05:28:29.703Z,49.50
2018-09-17T05:29:29.682Z,53.00
2018-09-17T05:30:29.661Z,46.30
2018-09-17T05:31:29.641Z,47.70
2018-09-17T05:32:30.371Z,47.60
2018-09-17T05:33:29.598Z,46.00
2018-09-17T05:34:29.578Z,48.70
2018-09-17T05:35:29.559Z,50.50
2018-09-17T05:36:29.538Z,48.50
2018-09-17T05:37:29.516Z,47.20
2018-09-17T05:38:29.496Z,47.60
2018-09-17T05:39:29.475Z,49.10
2018-09-17T05:40:29.454Z,50.00
2018-09-17T05:41:29.433Z,48.30
2018-09-17T05:42:29.413Z,53.00
2018-09-17T05:43:30.143Z,51.80
2018-09-17T05:44:29.401Z,54.40
2018-09-17T05:45:29.353Z,50.90
2018-09-17T05:46:29.330Z,50.20
2018-09-17T05:47:29.311Z,47.80
2018-09-17T05:48:29.290Z,46.30
2018-09-17T05:49:29.269Z,46.30
2018-09-17T05:50:29.250Z,46.80
2018-09-17T05:51:29.228Z,44.10
2018-09-17T05:52:29.208Z,49.50
2018-09-17T05:53:29.186Z,49.10
2018-09-17T05:54:29.917Z,54.50
2018-09-17T05:55:29.149Z,56.80
2018-09-17T05:56:29.126Z,53.40
2018-09-17T05:57:29.109Z,60.70
2018-09-17T05:58:29.085Z,57.10
2018-09-17T05:59:29.083Z,57.30
2018-09-17T06:00:29.044Z,58.40
2018-09-17T06:01:29.024Z,60.80
2018-09-17T06:02:29.003Z,65.30
2018-09-17T06:03:28.982Z,57.50
2018-09-17T06:04:28.975Z,56.80
2018-09-17T06:05:28.945Z,55.70
2018-09-17T06:06:28.921Z,54.70
2018-09-17T06:07:28.901Z,56.10
2018-09-17T06:08:28.881Z,52.20
2018-09-17T06:09:28.860Z,53.00
2018-09-17T06:10:28.846Z,53.20
2018-09-17T06:11:28.820Z,53.40
2018-09-17T06:12:28.799Z,54.10
2018-09-17T06:13:28.782Z,51.70
2018-09-17T06:14:28.787Z,50.10
2018-09-17T06:15:28.737Z,49.20
2018-09-17T06:16:28.719Z,47.90
2018-09-17T06:17:28.760Z,46.80
2018-09-17T06:18:28.681Z,45.20
2018-09-17T06:19:28.657Z,45.10
2018-09-17T06:20:28.636Z,47.80
2018-09-17T06:21:28.615Z,48.80
2018-09-17T06:22:28.597Z,45.40
2018-09-17T06:23:28.578Z,42.80
2018-09-17T06:24:28.558Z,46.60
2018-09-17T06:25:28.535Z,44.30
2018-09-17T06:26:29.285Z,43.30
2018-09-17T06:27:28.496Z,47.20
2018-09-17T06:28:28.478Z,53.30
2018-09-17T06:29:28.455Z,55.30
2018-09-17T06:30:28.434Z,49.50
2018-09-17T06:31:28.416Z,43.10
2018-09-17T06:32:28.395Z,42.70
2018-09-17T06:33:28.374Z,39.60
2018-09-17T06:34:28.354Z,43.30
2018-09-17T06:35:28.334Z,41.50
2018-09-17T06:36:28.315Z,42.00
2018-09-17T06:37:28.299Z,46.70
2018-09-17T06:38:28.274Z,41.90
2018-09-17T06:39:28.254Z,39.90
2018-09-17T06:40:28.235Z,40.70
2018-09-17T06:41:28.223Z,39.70
2018-09-17T06:42:28.197Z,39.80
2018-09-17T06:43:28.175Z,44.20
2018-09-17T06:44:28.156Z,39.60
2018-09-17T06:45:28.134Z,40.50
2018-09-17T06:46:28.115Z,40.60
2018-09-17T06:47:28.095Z,40.40
2018-09-17T06:48:28.077Z,41.90
2018-09-17T06:49:28.056Z,45.00
2018-09-17T06:50:28.035Z,40.90
2018-09-17T06:51:28.084Z,44.80
2018-09-17T06:52:27.996Z,46.90
2018-09-17T06:53:27.977Z,49.10
2018-09-17T06:54:27.957Z,41.40
2018-09-17T06:55:27.937Z,41.10
2018-09-17T06:56:27.919Z,40.10
2018-09-17T06:57:27.897Z,39.50
2018-09-17T06:58:27.879Z,40.70
2018-09-17T06:59:27.859Z,39.20
2018-09-17T07:00:27.839Z,42.40
2018-09-17T07:01:27.819Z,38.10
2018-09-17T07:02:27.800Z,40.20
2018-09-17T07:03:27.782Z,38.20
2018-09-17T07:04:32.267Z,42.60
2018-09-17T07:05:27.741Z,36.70
2018-09-17T07:06:27.722Z,40.00
2018-09-17T07:07:27.704Z,42.80
2018-09-17T07:08:27.684Z,41.80
2018-09-17T07:09:27.664Z,39.30
2018-09-17T07:10:29.895Z,38.40
2018-09-17T07:11:27.624Z,41.20
2018-09-17T07:12:27.605Z,40.40
2018-09-17T07:13:27.585Z,40.60
2018-09-17T07:14:27.565Z,40.40
2018-09-17T07:15:27.548Z,40.20
2018-09-17T07:16:27.549Z,39.50
2018-09-17T07:17:27.509Z,39.10
2018-09-17T07:18:27.488Z,37.20
2018-09-17T07:19:27.469Z,39.80
2018-09-17T07:20:27.450Z,39.50
2018-09-17T07:21:27.430Z,39.30
2018-09-17T07:22:27.412Z,39.80
2018-09-17T07:23:27.392Z,39.80
2018-09-17T07:24:27.376Z,38.10
2018-09-17T07:25:27.353Z,37.60
2018-09-17T07:26:27.334Z,35.20
2018-09-17T07:27:28.817Z,29.90
2018-09-17T07:28:27.296Z,29.80
2018-09-17T07:29:27.278Z,29.00
2018-09-17T07:30:27.258Z,28.60
2018-09-17T07:31:27.238Z,28.60
2018-09-17T07:32:27.223Z,29.10
2018-09-17T07:33:28.701Z,28.10
2018-09-17T07:34:27.181Z,29.20
2018-09-17T07:35:27.162Z,29.00
2018-09-17T07:36:27.291Z,27.90
2018-09-17T07:37:27.123Z,30.00
2018-09-17T07:38:27.104Z,30.60
2018-09-17T07:39:28.587Z,31.50
2018-09-17T07:40:27.067Z,30.30
2018-09-17T07:41:27.046Z,30.90
2018-09-17T07:42:27.058Z,30.90
2018-09-17T07:43:27.011Z,34.00
2018-09-17T07:44:26.990Z,31.10
2018-09-17T07:45:29.973Z,30.00
2018-09-17T07:46:26.951Z,30.00
2018-09-17T07:47:26.932Z,29.70
2018-09-17T07:48:26.915Z,31.00
2018-09-17T07:49:26.895Z,29.10
2018-09-17T07:50:26.876Z,31.60
2018-09-17T07:51:27.608Z,31.80
2018-09-17T07:52:26.838Z,33.90
2018-09-17T07:53:26.819Z,32.70
2018-09-17T07:54:26.801Z,32.70
2018-09-17T07:55:26.782Z,33.60
2018-09-17T07:56:26.763Z,34.40
2018-09-17T07:57:26.743Z,36.40
2018-09-17T07:58:26.725Z,34.90
2018-09-17T07:59:26.706Z,30.40
2018-09-17T08:00:26.687Z,27.40
2018-09-17T08:01:26.669Z,28.50
2018-09-17T08:02:26.651Z,31.70
2018-09-17T08:03:26.633Z,34.00
2018-09-17T08:04:26.612Z,30.00
2018-09-17T08:05:26.593Z,30.90
2018-09-17T08:06:26.575Z,36.00
2018-09-17T08:07:26.557Z,33.30
2018-09-17T08:08:26.540Z,30.30
2018-09-17T08:09:26.519Z,29.40
2018-09-17T08:10:26.502Z,28.20
2018-09-17T08:11:26.483Z,29.20
2018-09-17T08:12:26.464Z,26.90
2018-09-17T08:13:26.445Z,25.60
2018-09-17T08:14:26.431Z,27.40
2018-09-17T08:15:26.411Z,29.40
2018-09-17T08:16:26.390Z,26.30
2018-09-17T08:17:27.122Z,26.20
2018-09-17T08:18:26.353Z,25.60
2018-09-17T08:19:26.338Z,25.70
2018-09-17T08:20:26.318Z,27.40
2018-09-17T08:21:26.298Z,24.90
2018-09-17T08:22:26.283Z,29.30
2018-09-17T08:23:26.263Z,24.10
2018-09-17T08:24:26.254Z,27.90
2018-09-17T08:25:26.256Z,25.70
2018-09-17T08:26:26.210Z,22.70
2018-09-17T08:27:26.188Z,24.70
2018-09-17T08:28:26.172Z,23.90
2018-09-17T08:29:26.152Z,24.20
2018-09-17T08:30:26.135Z,23.50
2018-09-17T08:31:26.196Z,18.60
2018-09-17T08:32:26.099Z,19.40
2018-09-17T08:33:27.582Z,25.40
2018-09-17T08:34:26.062Z,22.30
2018-09-17T08:35:26.045Z,19.30
2018-09-17T08:36:26.028Z,19.10
2018-09-17T08:37:26.008Z,14.30
2018-09-17T08:38:25.990Z,16.10
2018-09-17T08:39:27.473Z,13.70
2018-09-17T08:40:25.954Z,13.90
2018-09-17T08:41:25.936Z,12.50
2018-09-17T08:42:25.920Z,15.10
2018-09-17T08:43:25.901Z,14.00
2018-09-17T08:44:25.883Z,11.20
2018-09-17T08:45:25.912Z,10.60
2018-09-17T08:46:25.862Z,10.80
2018-09-17T08:47:25.829Z,11.90
2018-09-17T08:48:25.812Z,13.80
2018-09-17T08:49:25.794Z,14.60
2018-09-17T08:50:25.777Z,14.00
2018-09-17T08:51:25.758Z,11.30
2018-09-17T08:52:25.745Z,13.10
2018-09-17T08:53:25.722Z,13.00
2018-09-17T08:54:25.705Z,11.90
2018-09-17T08:55:25.687Z,11.50
2018-09-17T08:56:25.671Z,12.50
2018-09-17T08:57:25.651Z,12.40
2018-09-17T08:58:25.634Z,13.00
2018-09-17T08:59:25.618Z,10.40
2018-09-17T09:00:25.600Z,10.40
2018-09-17T09:01:25.581Z,9.70
2018-09-17T09:02:25.564Z,9.90
2018-09-17T09:03:25.546Z,10.40
2018-09-17T09:04:25.540Z,9.70
2018-09-17T09:05:25.552Z,9.70
2018-09-17T09:06:25.494Z,12.50
2018-09-17T09:07:25.477Z,10.90
2018-09-17T09:08:25.460Z,13.40
2018-09-17T09:09:25.443Z,10.50
2018-09-17T09:10:25.429Z,11.40
2018-09-17T09:11:25.417Z,9.40
2018-09-17T09:12:25.393Z,10.20
2018-09-17T09:13:25.372Z,20.10
2018-09-17T09:14:25.355Z,22.70
2018-09-17T09:15:25.339Z,23.90
2018-09-17T09:16:25.321Z,25.10
2018-09-17T09:17:25.333Z,23.20
2018-09-17T09:18:25.286Z,26.40
2018-09-17T09:19:25.269Z,24.40
2018-09-17T09:20:25.252Z,25.20
2018-09-17T09:21:25.236Z,27.60
2018-09-17T09:22:25.217Z,24.40
2018-09-17T09:23:25.201Z,22.10
2018-09-17T09:24:25.184Z,22.80
2018-09-17T09:25:25.165Z,26.20
2018-09-17T09:26:25.148Z,18.90
2018-09-17T09:27:25.132Z,16.80
2018-09-17T09:28:25.114Z,17.40
2018-09-17T09:29:25.097Z,18.50
2018-09-17T09:30:25.079Z,25.20
2018-09-17T09:31:25.062Z,25.70
2018-09-17T09:32:25.046Z,27.80
2018-09-17T09:33:25.027Z,29.30
2018-09-17T09:34:25.011Z,27.30
2018-09-17T09:35:24.993Z,28.50
2018-09-17T09:36:24.976Z,27.20
2018-09-17T09:37:27.962Z,25.70
2018-09-17T09:38:24.942Z,24.70
2018-09-17T09:39:24.930Z,23.40
2018-09-17T09:40:24.908Z,22.90
2018-09-17T09:41:24.893Z,23.70
2018-09-17T09:42:24.874Z,29.50
2018-09-17T09:43:24.860Z,27.50
2018-09-17T09:44:24.840Z,25.10
2018-09-17T09:45:24.823Z,24.20
2018-09-17T09:46:24.854Z,25.70
2018-09-17T09:47:24.789Z,24.90
2018-09-17T09:48:24.772Z,24.90
2018-09-17T09:49:24.755Z,23.30
2018-09-17T09:50:24.737Z,25.30
2018-09-17T09:51:24.721Z,23.80
2018-09-17T09:52:24.704Z,24.20
2018-09-17T09:53:24.686Z,23.50
2018-09-17T09:54:24.670Z,21.40
2018-09-17T09:55:24.653Z,21.10
2018-09-17T09:56:24.636Z,18.90
2018-09-17T09:57:24.619Z,21.10
2018-09-17T09:58:24.603Z,20.10
2018-09-17T09:59:24.610Z,19.10
2018-09-17T10:00:24.569Z,20.50
2018-09-17T10:01:24.552Z,20.50
2018-09-17T10:02:24.535Z,23.70
2018-09-17T10:03:24.518Z,22.10
2018-09-17T10:04:24.502Z,24.50
2018-09-17T10:05:24.484Z,24.30
2018-09-17T10:06:24.468Z,21.40
2018-09-17T10:07:24.451Z,19.10
2018-09-17T10:08:24.434Z,20.90
2018-09-17T10:09:24.417Z,20.80
2018-09-17T10:10:24.402Z,22.50
2018-09-17T10:11:24.384Z,20.00
2018-09-17T10:12:24.368Z,22.00
2018-09-17T10:13:24.351Z,23.90
2018-09-17T10:14:24.335Z,20.30
2018-09-17T10:15:24.318Z,21.20
2018-09-17T10:16:24.305Z,20.50
2018-09-17T10:17:24.284Z,21.50
2018-09-17T10:18:24.267Z,20.60
2018-09-17T10:19:24.303Z,17.60
2018-09-17T10:20:24.986Z,17.80
2018-09-17T10:21:24.217Z,16.70
2018-09-17T10:22:24.202Z,17.50
2018-09-17T10:23:24.184Z,19.50
2018-09-17T10:24:24.169Z,17.60
2018-09-17T10:25:24.150Z,18.60
2018-09-17T10:26:24.134Z,17.40
2018-09-17T10:27:24.118Z,15.80
2018-09-17T10:28:24.102Z,15.40
2018-09-17T10:29:24.085Z,15.60
2018-09-17T10:30:24.070Z,18.10
2018-09-17T10:31:24.052Z,17.00
2018-09-17T10:32:24.036Z,14.70
2018-09-17T10:33:24.019Z,13.60
2018-09-17T10:34:24.002Z,13.20
2018-09-17T10:35:23.986Z,14.70
2018-09-17T10:36:23.970Z,13.30
2018-09-17T10:37:23.952Z,14.90
2018-09-17T10:38:23.939Z,14.80
2018-09-17T10:39:23.951Z,15.40
2018-09-17T10:40:23.905Z,16.60
2018-09-17T10:41:26.140Z,18.30
2018-09-17T10:42:23.871Z,15.10
2018-09-17T10:43:23.855Z,17.20
2018-09-17T10:44:23.841Z,15.30
2018-09-17T10:45:23.822Z,13.80
2018-09-17T10:46:23.807Z,14.40
2018-09-17T10:47:23.791Z,12.10
2018-09-17T10:48:23.775Z,12.30
2018-09-17T10:49:23.761Z,12.20
2018-09-17T10:50:23.741Z,12.90
2018-09-17T10:51:23.729Z,11.90
2018-09-17T10:52:23.711Z,11.70
2018-09-17T10:53:23.694Z,13.10
2018-09-17T10:54:23.677Z,12.00
2018-09-17T10:55:23.662Z,10.00
2018-09-17T10:56:23.648Z,12.20
2018-09-17T10:57:23.657Z,10.00
2018-09-17T10:58:23.614Z,11.20
2018-09-17T10:59:23.597Z,9.10
2018-09-17T11:00:23.584Z,11.20
2018-09-17T11:01:23.567Z,11.50
2018-09-17T11:02:23.549Z,19.20
2018-09-17T11:03:23.533Z,11.20
2018-09-17T11:04:23.521Z,10.60
2018-09-17T11:05:23.502Z,10.60
2018-09-17T11:06:23.486Z,10.40
2018-09-17T11:07:23.487Z,11.00
2018-09-17T11:08:23.492Z,11.60
2018-09-17T11:09:23.437Z,10.20
2018-09-17T11:10:23.423Z,9.00
2018-09-17T11:11:23.407Z,8.70
2018-09-17T11:12:23.392Z,8.90
2018-09-17T11:13:23.374Z,10.40
2018-09-17T11:14:23.357Z,13.60
2018-09-17T11:15:23.342Z,9.40
2018-09-17T11:16:23.327Z,8.80
2018-09-17T11:17:23.363Z,8.50
2018-09-17T11:18:23.295Z,8.60
2018-09-17T11:19:23.281Z,8.50
2018-09-17T11:20:24.015Z,8.00
2018-09-17T11:21:23.248Z,8.20
2018-09-17T11:22:23.234Z,8.90
2018-09-17T11:23:23.218Z,7.40
2018-09-17T11:24:23.202Z,8.00
2018-09-17T11:25:23.185Z,10.80
2018-09-17T11:26:23.169Z,9.30
2018-09-17T11:27:23.154Z,7.90
2018-09-17T11:28:23.141Z,8.10
2018-09-17T11:29:23.122Z,8.20
2018-09-17T11:30:23.107Z,8.30
2018-09-17T11:31:23.128Z,10.80
2018-09-17T11:32:23.077Z,9.20
2018-09-17T11:33:23.064Z,6.80
2018-09-17T11:34:23.046Z,8.30
2018-09-17T11:35:23.030Z,6.60
2018-09-17T11:36:23.014Z,6.10
2018-09-17T11:37:22.998Z,6.90
2018-09-17T11:38:22.983Z,6.20
2018-09-17T11:39:22.967Z,10.80
2018-09-17T11:40:22.953Z,6.90
2018-09-17T11:41:22.939Z,10.60
2018-09-17T11:42:24.423Z,9.10
2018-09-17T11:43:22.907Z,8.20
2018-09-17T11:44:22.892Z,8.70
2018-09-17T11:45:22.876Z,7.60
2018-09-17T11:46:22.860Z,9.10
2018-09-17T11:47:22.846Z,6.80
2018-09-17T11:48:24.374Z,7.20
2018-09-17T11:49:22.814Z,6.30
2018-09-17T11:50:22.798Z,8.70
2018-09-17T11:51:22.783Z,7.40
2018-09-17T11:52:22.768Z,7.30
2018-09-17T11:53:22.752Z,7.30
2018-09-17T11:54:24.239Z,10.20
2018-09-17T11:55:22.723Z,8.00
2018-09-17T11:56:22.706Z,6.40
2018-09-17T11:57:22.691Z,9.30
2018-09-17T11:58:22.675Z,7.90
2018-09-17T11:59:22.660Z,9.10
2018-09-17T12:00:23.397Z,8.40
2018-09-17T12:01:22.629Z,7.80
2018-09-17T12:02:22.614Z,7.40
2018-09-17T12:03:22.602Z,8.60
2018-09-17T12:04:22.585Z,5.90
2018-09-17T12:05:22.569Z,5.70
2018-09-17T12:06:22.554Z,5.50
2018-09-17T12:07:22.550Z,5.80
2018-09-17T12:08:22.523Z,7.60
2018-09-17T12:09:22.522Z,7.00
2018-09-17T12:10:22.492Z,6.70
2018-09-17T12:11:24.759Z,5.80
2018-09-17T12:12:22.462Z,7.90
2018-09-17T12:13:22.447Z,6.30
2018-09-17T12:14:22.432Z,5.80
2018-09-17T12:15:22.419Z,8.80
2018-09-17T12:16:22.403Z,8.00
2018-09-17T12:17:22.386Z,6.50
2018-09-17T12:18:22.373Z,6.70
2018-09-17T12:19:22.359Z,6.30
2018-09-17T12:20:22.343Z,9.00
2018-09-17T12:21:22.327Z,6.70
2018-09-17T12:22:22.311Z,9.00
2018-09-17T12:23:22.297Z,5.90
2018-09-17T12:24:22.282Z,8.30
2018-09-17T12:25:22.266Z,6.80
2018-09-17T12:26:22.252Z,7.40
2018-09-17T12:27:22.236Z,6.30
2018-09-17T12:28:22.223Z,8.50
2018-09-17T12:29:22.207Z,6.50
2018-09-17T12:30:22.193Z,10.30
2018-09-17T12:31:22.176Z,8.40
2018-09-17T12:32:22.163Z,5.60
2018-09-17T12:33:22.154Z,10.40
2018-09-17T12:34:22.132Z,6.50
2018-09-17T12:35:22.118Z,5.70
2018-09-17T12:36:22.103Z,6.60
2018-09-17T12:37:22.087Z,6.10
2018-09-17T12:38:22.073Z,6.60
2018-09-17T12:39:22.058Z,5.20
2018-09-17T12:40:22.044Z,5.10
2018-09-17T12:41:22.029Z,5.50
2018-09-17T12:42:22.014Z,10.00
2018-09-17T12:43:22.749Z,7.70
2018-09-17T12:44:21.984Z,7.70
2018-09-17T12:45:21.970Z,6.20
2018-09-17T12:46:21.954Z,9.00
2018-09-17T12:47:21.939Z,5.80
2018-09-17T12:48:21.925Z,5.30
2018-09-17T12:49:21.911Z,6.50
2018-09-17T12:50:21.895Z,6.10
2018-09-17T12:51:21.881Z,6.80
2018-09-17T12:52:21.872Z,5.30
2018-09-17T12:53:21.851Z,8.50
2018-09-17T12:54:22.606Z,6.40
2018-09-17T12:55:21.829Z,7.90